createdAt,value
2023-02-11T00:01:27.981Z,41.20
2023-02-11T00:03:56.255Z,49.70
2023-02-11T00:06:25.231Z,51.20
2023-02-11T00:08:53.568Z,41.00
2023-02-11T00:11:24.940Z,41.80
2023-02-11T00:13:53.374Z,43.70
2023-02-11T00:16:21.426Z,46.70
2023-02-11T00:18:52.403Z,45.70
2023-02-11T00:21:22.841Z,42.20
2023-02-11T00:23:51.340Z,44.50
2023-02-11T00:26:21.495Z,40.20
2023-02-11T00:28:51.106Z,42.00
2023-02-11T00:31:20.323Z,35.80
2023-02-11T00:33:49.702Z,42.00
2023-02-11T00:36:20.006Z,32.90
2023-02-11T00:38:49.645Z,35.50
2023-02-11T00:41:18.540Z,33.40
2023-02-11T00:43:47.208Z,33.60
2023-02-11T00:46:15.942Z,28.60
2023-02-11T00:48:44.333Z,39.50
2023-02-11T00:51:12.771Z,34.50
2023-02-11T00:53:40.677Z,34.80
2023-02-11T00:56:09.336Z,29.70
2023-02-11T00:58:37.483Z,35.60
2023-02-11T01:01:07.198Z,35.20
2023-02-11T01:03:35.195Z,37.30
2023-02-11T01:06:03.424Z,36.00
2023-02-11T01:08:31.567Z,36.30
2023-02-11T01:11:02.373Z,27.40
2023-02-11T01:13:32.796Z,37.80
2023-02-11T01:16:00.923Z,32.20
2023-02-11T01:18:29.264Z,26.80
2023-02-11T01:20:57.402Z,32.00
2023-02-11T01:23:25.504Z,26.90
2023-02-11T01:25:53.775Z,38.50
2023-02-11T01:28:24.374Z,38.70
2023-02-11T01:30:54.116Z,26.90
2023-02-11T01:33:23.543Z,27.80
2023-02-11T01:35:52.421Z,33.00
2023-02-11T01:38:23.217Z,32.30
2023-02-11T01:40:54.711Z,26.70
2023-02-11T01:43:24.151Z,28.70
2023-02-11T01:46:02.948Z,31.20
2023-02-11T01:48:37.475Z,29.30
2023-02-11T01:51:10.637Z,31.90
2023-02-11T01:53:58.263Z,22.90
2023-02-11T01:56:46.581Z,32.30
2023-02-11T01:59:20.016Z,30.90
2023-02-11T02:01:52.850Z,32.00
2023-02-11T02:04:26.474Z,38.20
2023-02-11T02:07:01.669Z,31.90
2023-02-11T02:09:37.623Z,38.20
2023-02-11T02:12:05.998Z,30.80
2023-02-11T02:14:37.004Z,27.30
2023-02-11T02:17:07.049Z,33.60
2023-02-11T02:20:14.222Z,28.80
2023-02-11T02:23:05.018Z,32.30
2023-02-11T02:26:19.455Z,35.20
2023-02-11T02:29:19.498Z,38.80
2023-02-11T02:32:05.303Z,33.00
2023-02-11T02:34:43.383Z,29.80
2023-02-11T02:37:19.565Z,41.90
2023-02-11T02:39:50.172Z,35.60
2023-02-11T02:42:20.279Z,26.40
2023-02-11T02:44:50.318Z,32.20
2023-02-11T02:47:19.228Z,31.80
2023-02-11T02:49:47.790Z,29.30
2023-02-11T02:52:29.807Z,37.80
2023-02-11T02:55:24.266Z,37.70
2023-02-11T02:58:14.150Z,32.50
2023-02-11T03:00:49.850Z,29.90
2023-02-11T03:03:29.879Z,30.30
2023-02-11T03:06:03.777Z,29.20
2023-02-11T03:08:38.830Z,32.90
2023-02-11T03:11:09.676Z,26.40
2023-02-11T03:13:39.967Z,28.90
2023-02-11T03:16:13.272Z,27.20
2023-02-11T03:18:47.391Z,30.00
2023-02-11T03:21:18.237Z,34.50
2023-02-11T03:23:52.775Z,22.90
2023-02-11T03:26:26.635Z,35.30
2023-02-11T03:29:00.735Z,24.80
2023-02-11T03:31:33.907Z,30.00
2023-02-11T03:34:10.130Z,32.70
2023-02-11T03:36:45.369Z,30.80
2023-02-11T03:39:23.154Z,28.10
2023-02-11T03:41:54.896Z,23.90
2023-02-11T03:44:27.551Z,31.30
2023-02-11T03:46:56.438Z,19.60
2023-02-11T03:49:28.566Z,31.70
2023-02-11T03:51:57.887Z,30.70
2023-02-11T03:54:29.986Z,26.40
2023-02-11T03:57:00.459Z,25.60
2023-02-11T03:59:29.428Z,31.70
2023-02-11T04:01:58.896Z,33.90
2023-02-11T04:04:26.934Z,26.30
2023-02-11T04:06:55.012Z,29.90
2023-02-11T04:09:23.188Z,30.30
2023-02-11T04:11:51.236Z,29.00
2023-02-11T04:14:19.289Z,30.00
2023-02-11T04:16:47.242Z,32.90
2023-02-11T04:19:15.351Z,33.00
2023-02-11T04:21:43.362Z,36.80
2023-02-11T04:24:11.413Z,34.90
2023-02-11T04:26:39.431Z,35.40
2023-02-11T04:29:07.448Z,37.00
2023-02-11T04:31:35.485Z,33.20
2023-02-11T04:34:03.510Z,37.30
2023-02-11T04:36:31.558Z,31.80
2023-02-11T04:39:00.023Z,35.40
2023-02-11T04:41:27.948Z,34.20
2023-02-11T04:43:55.920Z,35.90
2023-02-11T04:46:24.031Z,31.90
2023-02-11T04:48:51.991Z,39.00
2023-02-11T04:51:20.051Z,34.00
2023-02-11T04:53:47.981Z,36.80
2023-02-11T04:56:15.940Z,37.20
2023-02-11T04:58:44.455Z,34.00
2023-02-11T05:01:15.241Z,41.30
2023-02-11T05:03:43.526Z,36.80
2023-02-11T05:06:12.116Z,35.20
2023-02-11T05:08:40.154Z,32.70
2023-02-11T05:11:14.595Z,36.20
2023-02-11T05:13:43.801Z,38.90
2023-02-11T05:16:12.552Z,36.90
2023-02-11T05:18:42.231Z,36.40
2023-02-11T05:21:12.342Z,36.40
2023-02-11T05:23:41.260Z,31.70
2023-02-11T05:26:10.047Z,40.40
2023-02-11T05:28:38.611Z,40.40
2023-02-11T05:31:06.768Z,41.60
2023-02-11T05:33:35.026Z,42.00
2023-02-11T05:36:07.632Z,38.60
2023-02-11T05:38:36.296Z,34.80
2023-02-11T05:41:05.688Z,36.70
2023-02-11T05:43:34.735Z,49.60
2023-02-11T05:46:03.472Z,40.70
2023-02-11T05:48:31.988Z,38.10
2023-02-11T05:51:00.117Z,30.30
2023-02-11T05:53:28.112Z,38.10
2023-02-11T05:55:56.879Z,38.20
2023-02-11T05:58:24.840Z,42.90
2023-02-11T06:00:53.056Z,37.30
2023-02-11T06:03:21.096Z,38.70
2023-02-11T06:05:49.404Z,34.40
2023-02-11T06:08:17.682Z,43.30
2023-02-11T06:10:46.327Z,40.30
2023-02-11T06:13:17.995Z,32.50
2023-02-11T06:15:55.036Z,34.20
2023-02-11T06:18:23.054Z,40.80
2023-02-11T06:20:51.101Z,30.40
2023-02-11T06:23:19.127Z,44.50
2023-02-11T06:25:47.088Z,40.30
2023-02-11T06:28:15.153Z,35.40
2023-02-11T06:30:44.428Z,37.30
2023-02-11T06:33:12.496Z,42.00
2023-02-11T06:35:40.600Z,37.60
2023-02-11T06:38:08.668Z,39.20
2023-02-11T06:40:36.788Z,35.90
2023-02-11T06:43:04.997Z,38.80
2023-02-11T06:45:33.034Z,41.10
2023-02-11T06:48:01.000Z,38.90
2023-02-11T06:50:28.961Z,34.80
2023-02-11T06:52:58.412Z,41.90
2023-02-11T06:55:26.363Z,38.30
2023-02-11T06:57:54.416Z,41.70
2023-02-11T07:00:26.034Z,39.00
2023-02-11T07:02:54.196Z,48.40
2023-02-11T07:05:22.485Z,40.40
2023-02-11T07:07:50.414Z,37.80
2023-02-11T07:10:18.692Z,38.20
2023-02-11T07:12:47.146Z,44.70
2023-02-11T07:15:15.188Z,39.30
2023-02-11T07:17:43.197Z,34.20
2023-02-11T07:20:14.012Z,39.90
2023-02-11T07:22:42.013Z,48.70
2023-02-11T07:25:09.994Z,47.90
2023-02-11T07:27:37.997Z,51.20
2023-02-11T07:30:07.800Z,44.60
2023-02-11T07:32:35.800Z,44.80
2023-02-11T07:35:04.309Z,44.60
2023-02-11T07:37:34.119Z,49.60
2023-02-11T07:40:02.138Z,44.70
2023-02-11T07:42:30.125Z,54.50
2023-02-11T07:44:58.170Z,48.70
2023-02-11T07:47:26.287Z,46.70
2023-02-11T07:49:56.564Z,49.00
2023-02-11T07:52:24.860Z,45.20
2023-02-11T07:54:52.849Z,38.90
2023-02-11T07:57:21.300Z,42.50
2023-02-11T07:59:49.207Z,48.10
2023-02-11T08:02:17.290Z,47.60
2023-02-11T08:04:46.928Z,51.40
2023-02-11T08:07:16.459Z,52.00
2023-02-11T08:09:44.865Z,50.90
2023-02-11T08:12:13.118Z,48.90
2023-02-11T08:14:41.191Z,51.80
2023-02-11T08:17:09.326Z,50.90
2023-02-11T08:19:38.563Z,57.20
2023-02-11T08:22:06.530Z,53.00
2023-02-11T08:24:34.545Z,52.20
2023-02-11T08:27:02.640Z,53.30
2023-02-11T08:29:30.699Z,56.30
2023-02-11T08:31:58.669Z,51.20
2023-02-11T08:34:26.607Z,51.90
2023-02-11T08:36:54.521Z,47.90
2023-02-11T08:39:23.388Z,49.30
2023-02-11T08:41:53.267Z,51.90
2023-02-11T08:44:22.646Z,46.40
2023-02-11T08:46:51.882Z,52.10
2023-02-11T08:49:20.481Z,54.30
2023-02-11T08:51:50.230Z,51.80
2023-02-11T08:54:18.900Z,50.40
2023-02-11T08:56:50.558Z,53.60
2023-02-11T08:59:18.594Z,51.20
2023-02-11T09:01:48.082Z,54.30
2023-02-11T09:04:16.247Z,44.30
2023-02-11T09:06:44.427Z,55.10
2023-02-11T09:09:30.770Z,52.30
2023-02-11T09:12:00.640Z,48.50
2023-02-11T09:14:28.644Z,49.20
2023-02-11T09:16:57.712Z,46.60
2023-02-11T09:19:25.699Z,50.40
2023-02-11T09:21:53.746Z,49.90
2023-02-11T09:24:22.269Z,47.20
2023-02-11T09:26:50.413Z,43.70
2023-02-11T09:29:18.529Z,48.40
2023-02-11T09:31:47.814Z,51.00
2023-02-11T09:34:16.042Z,50.20
2023-02-11T09:36:44.229Z,54.90
2023-02-11T09:39:21.667Z,55.70
2023-02-11T09:42:15.914Z,46.80
2023-02-11T09:44:46.257Z,49.10
2023-02-11T09:47:24.722Z,50.60
2023-02-11T09:49:59.872Z,47.70
2023-02-11T09:52:35.736Z,45.60
2023-02-11T09:55:05.628Z,52.80
2023-02-11T09:57:36.235Z,50.70
2023-02-11T10:00:19.238Z,53.80
2023-02-11T10:03:04.338Z,53.10
2023-02-11T10:05:49.461Z,47.50
2023-02-11T10:08:29.288Z,57.80
2023-02-11T10:11:08.506Z,56.30
2023-02-11T10:13:57.287Z,51.80
2023-02-11T10:16:45.264Z,51.80
2023-02-11T10:22:32.104Z,41.80
2023-02-11T10:25:09.803Z,51.10
2023-02-11T10:27:37.875Z,52.10
2023-02-11T10:30:17.882Z,51.40
2023-02-11T10:32:51.772Z,41.10
2023-02-11T10:35:22.145Z,47.90
2023-02-11T10:37:57.593Z,47.40
2023-02-11T10:40:27.840Z,56.00
2023-02-11T10:42:59.084Z,51.90
2023-02-11T10:45:32.546Z,48.70
2023-02-11T10:48:03.229Z,53.10
2023-02-11T10:50:36.157Z,51.60
2023-02-11T10:53:19.152Z,52.20
2023-02-11T10:55:53.177Z,52.00
2023-02-11T10:58:27.844Z,52.20
2023-02-11T11:00:58.637Z,56.10
2023-02-11T11:03:28.852Z,53.60
2023-02-11T11:05:59.583Z,51.70
2023-02-11T11:08:40.102Z,58.90
2023-02-11T11:11:09.975Z,52.80
2023-02-11T11:13:40.379Z,50.70
2023-02-11T11:16:17.921Z,54.90
2023-02-11T11:18:49.549Z,60.10
2023-02-11T11:21:21.424Z,66.90
2023-02-11T11:23:53.556Z,58.60
2023-02-11T11:26:22.858Z,61.20
2023-02-11T11:28:57.737Z,62.20
2023-02-11T11:31:29.529Z,70.10
2023-02-11T11:34:00.375Z,61.00
2023-02-11T11:36:38.728Z,64.10
2023-02-11T11:39:22.433Z,73.30
2023-02-11T11:41:53.634Z,60.80
2023-02-11T11:44:30.243Z,65.20
2023-02-11T11:47:24.726Z,65.80
2023-02-11T11:50:05.426Z,68.70
2023-02-11T11:52:44.928Z,65.20
2023-02-11T11:55:19.442Z,70.00
2023-02-11T11:57:48.771Z,59.70
2023-02-11T12:00:21.202Z,68.00
2023-02-11T12:03:06.509Z,63.00
2023-02-11T12:05:42.378Z,68.10
2023-02-11T12:08:21.669Z,65.60
2023-02-11T12:10:59.740Z,64.60
2023-02-11T12:13:40.693Z,68.10
2023-02-11T12:16:18.978Z,63.00
2023-02-11T12:19:14.278Z,71.90
2023-02-11T12:21:52.785Z,67.20
2023-02-11T12:24:36.908Z,65.30
2023-02-11T12:27:13.093Z,65.10
2023-02-11T12:29:55.747Z,74.10
2023-02-11T12:32:32.850Z,71.00
2023-02-11T12:35:13.977Z,66.50
2023-02-11T12:37:58.332Z,62.80
2023-02-11T12:40:36.590Z,68.60
2023-02-11T12:43:19.867Z,64.20
2023-02-11T12:46:00.942Z,65.00
2023-02-11T12:48:57.644Z,74.50
2023-02-11T12:51:41.733Z,57.80
2023-02-11T12:54:24.247Z,66.90
2023-02-11T12:57:01.476Z,63.20
2023-02-11T12:59:44.588Z,58.30
2023-02-11T13:02:26.346Z,65.30
2023-02-11T13:04:57.195Z,55.70
2023-02-11T13:07:31.071Z,68.10
2023-02-11T13:10:15.804Z,64.70
2023-02-11T13:13:06.364Z,51.00
2023-02-11T13:15:34.977Z,67.80
2023-02-11T13:18:12.596Z,66.10
2023-02-11T13:20:48.092Z,65.30
2023-02-11T13:23:26.025Z,62.20
2023-02-11T13:26:03.836Z,68.70
2023-02-11T13:28:44.602Z,69.10
2023-02-11T13:32:11.491Z,61.30
2023-02-11T13:35:01.846Z,73.20
2023-02-11T13:37:38.555Z,59.10
2023-02-11T13:40:24.956Z,67.40
2023-02-11T13:43:20.872Z,60.80
2023-02-11T13:48:25.034Z,64.70
2023-02-11T13:50:58.664Z,67.70
2023-02-11T13:53:30.904Z,62.70
2023-02-11T13:56:09.632Z,74.40
2023-02-11T13:58:46.634Z,60.50
2023-02-11T14:01:42.782Z,66.90
2023-02-11T14:04:40.874Z,69.20
2023-02-11T14:07:49.824Z,65.20
2023-02-11T14:10:50.398Z,75.10
2023-02-11T14:13:25.642Z,70.70
2023-02-11T14:16:09.005Z,66.60
2023-02-11T14:18:59.775Z,65.60
2023-02-11T14:21:38.496Z,67.90
2023-02-11T14:24:46.427Z,60.50
2023-02-11T14:27:23.663Z,63.70
2023-02-11T14:30:12.514Z,65.70
2023-02-11T14:32:58.177Z,69.60
2023-02-11T14:35:35.367Z,56.10
2023-02-11T14:38:14.422Z,65.50
2023-02-11T14:40:51.501Z,61.60
2023-02-11T14:43:24.193Z,60.70
2023-02-11T14:45:59.364Z,62.00
2023-02-11T14:48:34.410Z,56.40
2023-02-11T14:51:06.890Z,59.50
2023-02-11T14:53:36.738Z,64.00
2023-02-11T14:56:18.384Z,58.40
2023-02-11T14:58:51.170Z,59.70
2023-02-11T15:01:31.816Z,64.50
2023-02-11T15:04:02.261Z,59.60
2023-02-11T15:06:33.015Z,54.20
2023-02-11T15:09:06.198Z,54.20
2023-02-11T15:11:41.063Z,60.70
2023-02-11T15:14:19.142Z,56.10
2023-02-11T15:16:49.468Z,56.50
2023-02-11T15:19:26.762Z,53.30
2023-02-11T15:21:56.264Z,50.80
2023-02-11T15:25:09.804Z,49.50
2023-02-11T15:27:42.396Z,53.70
2023-02-11T15:30:33.516Z,54.80
2023-02-11T15:33:06.241Z,53.30
2023-02-11T15:35:37.230Z,50.10
2023-02-11T15:38:06.010Z,52.70
2023-02-11T15:40:36.231Z,52.00
2023-02-11T15:43:09.575Z,46.50
2023-02-11T15:45:40.281Z,42.10
2023-02-11T15:48:12.718Z,43.20
2023-02-11T15:50:42.703Z,43.90
2023-02-11T15:53:22.912Z,43.70
2023-02-11T15:55:54.070Z,46.00
2023-02-11T15:58:23.120Z,45.70
2023-02-11T16:00:59.064Z,44.10
2023-02-11T16:03:31.878Z,38.90
2023-02-11T16:06:18.617Z,41.20
2023-02-11T16:08:58.942Z,44.90
2023-02-11T16:11:30.619Z,41.00
2023-02-11T16:14:00.158Z,36.10
2023-02-11T16:16:31.603Z,38.20
2023-02-11T16:19:05.366Z,38.20
2023-02-11T16:21:38.325Z,37.90
2023-02-11T16:24:08.408Z,37.80
2023-02-11T16:26:40.307Z,32.30
2023-02-11T16:29:15.073Z,44.70
2023-02-11T16:31:46.294Z,38.30
2023-02-11T16:34:19.325Z,35.10
2023-02-11T16:36:48.474Z,32.20
2023-02-11T16:39:17.699Z,38.60
2023-02-11T16:41:45.936Z,33.80
2023-02-11T16:44:14.204Z,33.10
2023-02-11T16:46:42.836Z,33.00
2023-02-11T16:49:16.254Z,34.70
2023-02-11T16:51:47.464Z,33.00
2023-02-11T16:54:16.940Z,30.30
2023-02-11T16:56:44.997Z,30.50
2023-02-11T16:59:13.322Z,30.90
2023-02-11T17:01:43.825Z,25.40
2023-02-11T17:04:18.246Z,33.20
2023-02-11T17:06:47.547Z,31.00
2023-02-11T17:09:19.708Z,29.40
2023-02-11T17:11:48.770Z,33.00
2023-02-11T17:14:17.697Z,28.80
2023-02-11T17:16:48.265Z,28.90
2023-02-11T17:19:19.173Z,26.60
2023-02-11T17:21:49.348Z,31.70
2023-02-11T17:24:17.998Z,32.00
2023-02-11T17:26:46.575Z,28.10
2023-02-11T17:29:18.296Z,24.40
2023-02-11T17:31:46.329Z,28.90
2023-02-11T17:34:14.788Z,24.80
2023-02-11T17:36:42.801Z,29.70
2023-02-11T17:39:11.120Z,27.60
2023-02-11T17:41:39.896Z,31.40
2023-02-11T17:44:11.580Z,25.30
2023-02-11T17:46:39.592Z,31.20
2023-02-11T17:49:07.715Z,26.70
2023-02-11T17:51:37.454Z,29.90
2023-02-11T17:54:07.582Z,26.60
2023-02-11T17:56:36.829Z,26.80
2023-02-11T17:59:07.684Z,27.50
2023-02-11T18:01:37.668Z,26.40
2023-02-11T18:04:07.551Z,25.50
2023-02-11T18:06:36.564Z,23.90
2023-02-11T18:09:04.826Z,24.10
2023-02-11T18:11:36.496Z,23.30
2023-02-11T18:14:07.188Z,24.30
2023-02-11T18:16:38.552Z,25.30
2023-02-11T18:19:07.555Z,25.00
2023-02-11T18:21:35.809Z,23.90
2023-02-11T18:24:07.024Z,26.70
2023-02-11T18:26:35.186Z,24.80
2023-02-11T18:29:06.314Z,20.40
2023-02-11T18:31:35.826Z,26.20
2023-02-11T18:34:06.830Z,25.30
2023-02-11T18:36:37.260Z,22.60
2023-02-11T18:39:05.865Z,25.00
2023-02-11T18:41:36.212Z,26.80
2023-02-11T18:44:05.392Z,19.90
2023-02-11T18:46:33.929Z,20.20
2023-02-11T18:49:02.021Z,20.70
2023-02-11T18:51:31.892Z,22.30
2023-02-11T18:54:01.171Z,22.70
2023-02-11T18:56:29.316Z,23.50
2023-02-11T18:59:00.400Z,24.50
2023-02-11T19:01:30.492Z,26.10
2023-02-11T19:04:02.078Z,19.20
2023-02-11T19:06:32.534Z,23.90
2023-02-11T19:09:04.244Z,18.20
2023-02-11T19:11:49.699Z,21.00
2023-02-11T19:14:21.048Z,23.20
2023-02-11T19:16:50.640Z,21.30
2023-02-11T19:19:19.998Z,20.80
2023-02-11T19:21:48.421Z,25.40
2023-02-11T19:24:19.153Z,20.20
2023-02-11T19:26:49.369Z,17.30
2023-02-11T19:29:18.148Z,21.60
2023-02-11T19:31:46.710Z,22.40
2023-02-11T19:34:16.705Z,15.80
2023-02-11T19:36:44.789Z,19.30
2023-02-11T19:39:13.638Z,22.20
2023-02-11T19:41:41.734Z,18.50
2023-02-11T19:44:09.891Z,23.50
2023-02-11T19:46:40.343Z,17.00
2023-02-11T19:49:09.575Z,20.50
2023-02-11T19:51:38.745Z,18.20
2023-02-11T19:54:08.137Z,24.70
2023-02-11T19:56:37.248Z,18.50
2023-02-11T19:59:08.181Z,14.90
2023-02-11T20:01:36.597Z,20.40
2023-02-11T20:04:05.400Z,16.90
2023-02-11T20:06:34.441Z,18.40
2023-02-11T20:09:05.583Z,20.30
2023-02-11T20:11:34.451Z,20.90
2023-02-11T20:14:03.479Z,21.80
2023-02-11T20:16:46.920Z,23.00
2023-02-11T20:19:19.357Z,16.40
2023-02-11T20:21:50.557Z,19.20
2023-02-11T20:24:19.276Z,19.50
2023-02-11T20:26:47.858Z,15.30
2023-02-11T20:29:16.569Z,19.20
2023-02-11T20:31:46.013Z,17.50
2023-02-11T20:34:16.851Z,15.90
2023-02-11T20:36:50.891Z,19.40
2023-02-11T20:39:21.557Z,18.50
2023-02-11T20:41:53.271Z,18.00
2023-02-11T20:44:22.813Z,18.20
2023-02-11T20:46:53.334Z,17.10
2023-02-11T20:49:23.954Z,22.90
2023-02-11T20:51:53.021Z,25.10
2023-02-11T20:54:23.258Z,22.00
2023-02-11T20:56:52.977Z,16.90
2023-02-11T20:59:22.816Z,24.60
2023-02-11T21:01:53.613Z,22.30
2023-02-11T21:04:23.653Z,21.30
2023-02-11T21:06:54.840Z,15.90
2023-02-11T21:09:27.961Z,20.30
2023-02-11T21:11:56.444Z,24.50
2023-02-11T21:14:25.838Z,18.90
2023-02-11T21:16:54.688Z,21.40
2023-02-11T21:19:23.139Z,15.70
2023-02-11T21:21:51.428Z,17.30
2023-02-11T21:24:19.900Z,15.80
2023-02-11T21:26:48.251Z,9.80
2023-02-11T21:29:16.398Z,7.30
2023-02-11T21:31:44.686Z,7.20
2023-02-11T21:34:15.220Z,5.90
2023-02-11T21:36:44.709Z,9.80
2023-02-11T21:39:13.421Z,4.60
2023-02-11T21:41:41.771Z,7.20
2023-02-11T21:44:10.103Z,5.80
2023-02-11T21:46:38.646Z,7.80
2023-02-11T21:49:06.653Z,5.50
2023-02-11T21:51:34.986Z,5.20
2023-02-11T21:54:03.881Z,5.20
2023-02-11T21:56:33.767Z,8.20
2023-02-11T21:59:01.826Z,3.80
2023-02-11T22:01:34.710Z,3.70
2023-02-11T22:04:04.290Z,2.80
2023-02-11T22:06:34.339Z,3.50
2023-02-11T22:09:06.604Z,5.90
2023-02-11T22:11:35.381Z,6.80
2023-02-11T22:14:03.775Z,3.20
2023-02-11T22:16:32.114Z,3.80
2023-02-11T22:19:01.964Z,4.50
2023-02-11T22:21:30.468Z,6.40
2023-02-11T22:23:58.713Z,5.90
2023-02-11T22:26:28.309Z,6.30
2023-02-11T22:28:56.970Z,5.20
2023-02-11T22:31:28.855Z,5.00
2023-02-11T22:33:57.964Z,5.60
2023-02-11T22:36:28.052Z,6.20
2023-02-11T22:38:59.269Z,3.20
2023-02-11T22:41:27.824Z,5.00
2023-02-11T22:43:58.126Z,8.50
2023-02-11T22:46:27.447Z,5.70
2023-02-11T22:48:56.182Z,5.00
2023-02-11T22:51:26.904Z,4.80
2023-02-11T22:53:56.910Z,9.10
2023-02-11T22:56:26.419Z,5.00
2023-02-11T22:58:57.946Z,4.90
2023-02-11T23:01:26.699Z,5.50
2023-02-11T23:03:55.506Z,4.50
2023-02-11T23:06:24.192Z,4.10
2023-02-11T23:08:52.433Z,3.10
2023-02-11T23:11:22.244Z,3.00
2023-02-11T23:13:53.243Z,5.90
2023-02-11T23:16:23.684Z,2.70
2023-02-11T23:18:52.504Z,4.20
2023-02-11T23:21:22.323Z,2.50
2023-02-11T23:23:55.265Z,4.30
2023-02-11T23:26:25.444Z,3.10
2023-02-11T23:28:53.581Z,5.50
2023-02-11T23:31:23.983Z,2.80
2023-02-11T23:33:52.562Z,2.90
2023-02-11T23:36:22.135Z,5.00
2023-02-11T23:38:50.623Z,2.30
2023-02-11T23:41:19.492Z,4.00
2023-02-11T23:43:50.760Z,3.50
2023-02-11T23:46:19.242Z,3.70
2023-02-11T23:48:47.293Z,3.70
2023-02-11T23:51:15.349Z,5.50
2023-02-11T23:53:45.088Z,5.20
2023-02-11T23:56:16.659Z,3.90
2023-02-11T23:58:46.831Z,6.10
